sensor_id;sensor_type;location;lat;lon;timestamp;P1;durP1;ratioP1;P2;durP2;ratioP2
15228;SDS011;7717;47.792;12.076;2022-07-23T00:00:36;4.20;;;3.80;;
15228;SDS011;7717;47.792;12.076;2022-07-23T00:03:02;4.20;;;3.90;;
15228;SDS011;7717;47.792;12.076;2022-07-23T00:05:27;4.50;;;4.10;;
15228;SDS011;7717;47.792;12.076;2022-07-23T00:07:52;4.20;;;3.40;;
15228;SDS011;7717;47.792;12.076;2022-07-23T00:10:18;4.00;;;3.70;;
15228;SDS011;7717;47.792;12.076;2022-07-23T00:12:43;4.03;;;3.67;;
15228;SDS011;7717;47.792;12.076;2022-07-23T00:15:09;4.17;;;3.83;;
15228;SDS011;7717;47.792;12.076;2022-07-23T00:17:34;4.70;;;4.10;;
15228;SDS011;7717;47.792;12.076;2022-07-23T00:20:00;4.90;;;4.47;;
15228;SDS011;7717;47.792;12.076;2022-07-23T00:22:25;5.30;;;4.57;;
15228;SDS011;7717;47.792;12.076;2022-07-23T00:24:52;4.07;;;3.77;;
15228;SDS011;7717;47.792;12.076;2022-07-23T00:27:17;4.87;;;4.33;;
15228;SDS011;7717;47.792;12.076;2022-07-23T00:29:43;4.53;;;4.13;;
15228;SDS011;7717;47.792;12.076;2022-07-23T00:32:08;5.67;;;5.17;;
15228;SDS011;7717;47.792;12.076;2022-07-23T00:34:34;6.70;;;5.07;;
15228;SDS011;7717;47.792;12.076;2022-07-23T00:36:59;6.00;;;5.20;;
15228;SDS011;7717;47.792;12.076;2022-07-23T00:39:24;5.40;;;4.93;;
15228;SDS011;7717;47.792;12.076;2022-07-23T00:41:50;5.87;;;4.80;;
15228;SDS011;7717;47.792;12.076;2022-07-23T00:46:48;12.77;;;5.70;;
15228;SDS011;7717;47.792;12.076;2022-07-23T00:49:13;5.77;;;5.27;;
15228;SDS011;7717;47.792;12.076;2022-07-23T00:51:38;7.07;;;5.40;;
15228;SDS011;7717;47.792;12.076;2022-07-23T00:54:04;4.47;;;4.10;;
15228;SDS011;7717;47.792;12.076;2022-07-23T00:56:29;7.20;;;5.80;;
15228;SDS011;7717;47.792;12.076;2022-07-23T00:58:54;5.90;;;4.40;;
15228;SDS011;7717;47.792;12.076;2022-07-23T01:01:20;5.40;;;4.90;;
15228;SDS011;7717;47.792;12.076;2022-07-23T01:03:45;5.33;;;4.20;;
15228;SDS011;7717;47.792;12.076;2022-07-23T01:06:10;4.70;;;3.73;;
15228;SDS011;7717;47.792;12.076;2022-07-23T01:08:36;5.87;;;5.37;;
15228;SDS011;7717;47.792;12.076;2022-07-23T01:11:01;5.53;;;5.03;;
15228;SDS011;7717;47.792;12.076;2022-07-23T01:13:27;7.37;;;4.93;;
15228;SDS011;7717;47.792;12.076;2022-07-23T01:15:52;5.70;;;5.20;;
15228;SDS011;7717;47.792;12.076;2022-07-23T01:18:17;5.60;;;5.20;;
15228;SDS011;7717;47.792;12.076;2022-07-23T01:20:43;5.40;;;4.90;;
15228;SDS011;7717;47.792;12.076;2022-07-23T01:23:08;5.73;;;5.23;;
15228;SDS011;7717;47.792;12.076;2022-07-23T01:25:34;5.80;;;5.27;;
15228;SDS011;7717;47.792;12.076;2022-07-23T01:27:59;5.77;;;4.90;;
15228;SDS011;7717;47.792;12.076;2022-07-23T01:30:24;7.57;;;5.20;;
15228;SDS011;7717;47.792;12.076;2022-07-23T01:32:49;5.87;;;4.63;;
15228;SDS011;7717;47.792;12.076;2022-07-23T01:35:15;5.13;;;4.47;;
15228;SDS011;7717;47.792;12.076;2022-07-23T01:37:40;5.33;;;4.50;;
15228;SDS011;7717;47.792;12.076;2022-07-23T01:40:06;5.27;;;4.87;;
15228;SDS011;7717;47.792;12.076;2022-07-23T01:42:32;4.90;;;4.50;;
15228;SDS011;7717;47.792;12.076;2022-07-23T01:44:57;5.33;;;4.83;;
15228;SDS011;7717;47.792;12.076;2022-07-23T01:47:22;5.93;;;5.17;;
15228;SDS011;7717;47.792;12.076;2022-07-23T01:49:48;6.50;;;5.20;;
15228;SDS011;7717;47.792;12.076;2022-07-23T01:52:13;5.43;;;4.93;;
15228;SDS011;7717;47.792;12.076;2022-07-23T01:54:39;5.53;;;4.97;;
15228;SDS011;7717;47.792;12.076;2022-07-23T01:57:05;5.70;;;4.57;;
15228;SDS011;7717;47.792;12.076;2022-07-23T01:59:30;5.80;;;5.40;;
15228;SDS011;7717;47.792;12.076;2022-07-23T02:01:55;6.30;;;5.70;;
15228;SDS011;7717;47.792;12.076;2022-07-23T02:04:21;7.83;;;7.10;;
15228;SDS011;7717;47.792;12.076;2022-07-23T02:06:47;7.37;;;6.63;;
15228;SDS011;7717;47.792;12.076;2022-07-23T02:09:12;8.03;;;7.23;;
15228;SDS011;7717;47.792;12.076;2022-07-23T02:11:44;8.33;;;7.53;;
15228;SDS011;7717;47.792;12.076;2022-07-23T02:14:12;10.63;;;6.50;;
15228;SDS011;7717;47.792;12.076;2022-07-23T02:16:37;7.77;;;7.03;;
15228;SDS011;7717;47.792;12.076;2022-07-23T02:19:03;7.67;;;7.00;;
15228;SDS011;7717;47.792;12.076;2022-07-23T02:21:28;7.57;;;6.87;;
15228;SDS011;7717;47.792;12.076;2022-07-23T02:23:54;7.23;;;6.60;;
15228;SDS011;7717;47.792;12.076;2022-07-23T02:26:19;7.90;;;7.07;;
15228;SDS011;7717;47.792;12.076;2022-07-23T02:28:44;7.37;;;6.23;;
15228;SDS011;7717;47.792;12.076;2022-07-23T02:31:09;7.37;;;6.70;;
15228;SDS011;7717;47.792;12.076;2022-07-23T02:33:35;7.33;;;6.67;;
15228;SDS011;7717;47.792;12.076;2022-07-23T02:36:00;6.27;;;5.77;;
15228;SDS011;7717;47.792;12.076;2022-07-23T02:38:26;7.80;;;6.37;;
15228;SDS011;7717;47.792;12.076;2022-07-23T02:40:51;6.57;;;5.97;;
15228;SDS011;7717;47.792;12.076;2022-07-23T02:43:16;9.47;;;6.40;;
15228;SDS011;7717;47.792;12.076;2022-07-23T02:45:42;5.57;;;5.10;;
15228;SDS011;7717;47.792;12.076;2022-07-23T02:48:07;6.67;;;5.60;;
15228;SDS011;7717;47.792;12.076;2022-07-23T02:50:32;5.87;;;5.33;;
15228;SDS011;7717;47.792;12.076;2022-07-23T02:52:57;5.63;;;5.10;;
15228;SDS011;7717;47.792;12.076;2022-07-23T02:55:23;4.97;;;4.57;;
15228;SDS011;7717;47.792;12.076;2022-07-23T02:57:51;5.60;;;5.20;;
15228;SDS011;7717;47.792;12.076;2022-07-23T03:00:20;5.53;;;4.93;;
15228;SDS011;7717;47.792;12.076;2022-07-23T03:02:45;5.83;;;5.30;;
15228;SDS011;7717;47.792;12.076;2022-07-23T03:05:11;5.97;;;5.47;;
15228;SDS011;7717;47.792;12.076;2022-07-23T03:07:36;5.87;;;5.40;;
15228;SDS011;7717;47.792;12.076;2022-07-23T03:10:01;5.03;;;4.63;;
15228;SDS011;7717;47.792;12.076;2022-07-23T03:12:26;5.77;;;5.27;;
15228;SDS011;7717;47.792;12.076;2022-07-23T03:14:52;5.80;;;5.30;;
15228;SDS011;7717;47.792;12.076;2022-07-23T03:17:17;8.00;;;4.97;;
15228;SDS011;7717;47.792;12.076;2022-07-23T03:19:43;6.10;;;5.57;;
15228;SDS011;7717;47.792;12.076;2022-07-23T03:22:08;5.37;;;4.93;;
15228;SDS011;7717;47.792;12.076;2022-07-23T03:24:35;6.20;;;5.60;;
15228;SDS011;7717;47.792;12.076;2022-07-23T03:27:21;5.50;;;5.10;;
15228;SDS011;7717;47.792;12.076;2022-07-23T03:29:46;5.20;;;4.80;;
15228;SDS011;7717;47.792;12.076;2022-07-23T03:32:11;5.60;;;5.10;;
15228;SDS011;7717;47.792;12.076;2022-07-23T03:34:36;5.97;;;5.47;;
15228;SDS011;7717;47.792;12.076;2022-07-23T03:37:02;5.90;;;5.40;;
15228;SDS011;7717;47.792;12.076;2022-07-23T03:39:27;6.27;;;5.77;;
15228;SDS011;7717;47.792;12.076;2022-07-23T03:41:53;6.13;;;5.63;;
15228;SDS011;7717;47.792;12.076;2022-07-23T03:44:18;6.23;;;5.73;;
15228;SDS011;7717;47.792;12.076;2022-07-23T03:46:43;6.33;;;5.73;;
15228;SDS011;7717;47.792;12.076;2022-07-23T03:49:08;6.83;;;6.23;;
15228;SDS011;7717;47.792;12.076;2022-07-23T03:51:34;5.93;;;5.50;;
15228;SDS011;7717;47.792;12.076;2022-07-23T03:53:59;6.13;;;5.50;;
15228;SDS011;7717;47.792;12.076;2022-07-23T03:56:24;6.43;;;5.93;;
15228;SDS011;7717;47.792;12.076;2022-07-23T03:58:49;6.50;;;5.90;;
15228;SDS011;7717;47.792;12.076;2022-07-23T04:01:15;6.77;;;5.93;;
15228;SDS011;7717;47.792;12.076;2022-07-23T04:03:40;7.50;;;6.80;;
15228;SDS011;7717;47.792;12.076;2022-07-23T04:06:05;6.27;;;5.77;;
15228;SDS011;7717;47.792;12.076;2022-07-23T04:08:31;6.63;;;6.03;;
15228;SDS011;7717;47.792;12.076;2022-07-23T04:10:56;6.97;;;6.17;;
15228;SDS011;7717;47.792;12.076;2022-07-23T04:13:21;7.70;;;6.20;;
15228;SDS011;7717;47.792;12.076;2022-07-23T04:15:46;6.73;;;6.13;;
15228;SDS011;7717;47.792;12.076;2022-07-23T04:18:12;6.57;;;5.90;;
15228;SDS011;7717;47.792;12.076;2022-07-23T04:20:37;8.27;;;6.47;;
15228;SDS011;7717;47.792;12.076;2022-07-23T04:23:02;7.73;;;6.03;;
15228;SDS011;7717;47.792;12.076;2022-07-23T04:25:27;6.93;;;5.67;;
15228;SDS011;7717;47.792;12.076;2022-07-23T04:27:53;6.50;;;5.90;;
15228;SDS011;7717;47.792;12.076;2022-07-23T04:30:21;5.50;;;5.10;;
15228;SDS011;7717;47.792;12.076;2022-07-23T04:32:46;6.67;;;5.90;;
15228;SDS011;7717;47.792;12.076;2022-07-23T04:35:12;6.53;;;5.50;;
15228;SDS011;7717;47.792;12.076;2022-07-23T04:37:37;6.50;;;6.00;;
15228;SDS011;7717;47.792;12.076;2022-07-23T04:40:02;6.43;;;5.87;;
15228;SDS011;7717;47.792;12.076;2022-07-23T04:42:27;6.53;;;5.93;;
15228;SDS011;7717;47.792;12.076;2022-07-23T04:44:53;7.83;;;7.00;;
15228;SDS011;7717;47.792;12.076;2022-07-23T04:47:18;5.13;;;4.63;;
15228;SDS011;7717;47.792;12.076;2022-07-23T04:49:44;6.70;;;6.00;;
15228;SDS011;7717;47.792;12.076;2022-07-23T04:52:09;8.40;;;6.53;;
15228;SDS011;7717;47.792;12.076;2022-07-23T04:54:34;9.43;;;7.57;;
15228;SDS011;7717;47.792;12.076;2022-07-23T04:57:00;7.13;;;6.10;;
15228;SDS011;7717;47.792;12.076;2022-07-23T04:59:25;6.57;;;5.97;;
15228;SDS011;7717;47.792;12.076;2022-07-23T05:01:50;6.87;;;6.03;;
15228;SDS011;7717;47.792;12.076;2022-07-23T05:04:15;6.87;;;5.93;;
15228;SDS011;7717;47.792;12.076;2022-07-23T05:06:40;7.73;;;6.90;;
15228;SDS011;7717;47.792;12.076;2022-07-23T05:09:06;5.67;;;5.03;;
15228;SDS011;7717;47.792;12.076;2022-07-23T05:11:31;7.77;;;7.10;;
15228;SDS011;7717;47.792;12.076;2022-07-23T05:13:56;7.83;;;7.13;;
15228;SDS011;7717;47.792;12.076;2022-07-23T05:16:22;7.20;;;6.50;;
15228;SDS011;7717;47.792;12.076;2022-07-23T05:18:47;8.47;;;7.60;;
15228;SDS011;7717;47.792;12.076;2022-07-23T05:21:12;8.13;;;7.37;;
15228;SDS011;7717;47.792;12.076;2022-07-23T05:23:38;7.57;;;6.87;;
15228;SDS011;7717;47.792;12.076;2022-07-23T05:26:07;7.60;;;6.83;;
15228;SDS011;7717;47.792;12.076;2022-07-23T05:28:32;7.83;;;7.13;;
15228;SDS011;7717;47.792;12.076;2022-07-23T05:30:58;6.33;;;5.70;;
15228;SDS011;7717;47.792;12.076;2022-07-23T05:33:24;8.23;;;7.43;;
15228;SDS011;7717;47.792;12.076;2022-07-23T05:35:52;8.30;;;7.50;;
15228;SDS011;7717;47.792;12.076;2022-07-23T05:38:18;8.90;;;8.00;;
15228;SDS011;7717;47.792;12.076;2022-07-23T05:40:46;9.97;;;7.90;;
15228;SDS011;7717;47.792;12.076;2022-07-23T05:43:12;8.80;;;7.90;;
15228;SDS011;7717;47.792;12.076;2022-07-23T05:45:37;11.27;;;8.40;;
15228;SDS011;7717;47.792;12.076;2022-07-23T05:48:02;8.80;;;6.73;;
15228;SDS011;7717;47.792;12.076;2022-07-23T05:50:28;7.37;;;6.67;;
15228;SDS011;7717;47.792;12.076;2022-07-23T05:52:53;7.10;;;6.37;;
15228;SDS011;7717;47.792;12.076;2022-07-23T05:55:19;7.47;;;6.03;;
15228;SDS011;7717;47.792;12.076;2022-07-23T05:57:44;6.70;;;6.00;;
15228;SDS011;7717;47.792;12.076;2022-07-23T06:00:10;6.60;;;6.00;;
15228;SDS011;7717;47.792;12.076;2022-07-23T06:02:35;6.00;;;5.40;;
15228;SDS011;7717;47.792;12.076;2022-07-23T06:05:01;5.93;;;5.33;;
15228;SDS011;7717;47.792;12.076;2022-07-23T06:07:27;5.87;;;5.37;;
15228;SDS011;7717;47.792;12.076;2022-07-23T06:09:52;6.40;;;5.80;;
15228;SDS011;7717;47.792;12.076;2022-07-23T06:12:18;6.53;;;5.80;;
15228;SDS011;7717;47.792;12.076;2022-07-23T06:14:43;7.23;;;6.03;;
15228;SDS011;7717;47.792;12.076;2022-07-23T06:17:09;7.10;;;6.27;;
15228;SDS011;7717;47.792;12.076;2022-07-23T06:19:35;6.20;;;5.70;;
15228;SDS011;7717;47.792;12.076;2022-07-23T06:22:00;7.83;;;5.40;;
15228;SDS011;7717;47.792;12.076;2022-07-23T06:24:25;5.47;;;4.97;;
15228;SDS011;7717;47.792;12.076;2022-07-23T06:26:50;4.90;;;4.60;;
15228;SDS011;7717;47.792;12.076;2022-07-23T06:29:16;5.60;;;4.80;;
15228;SDS011;7717;47.792;12.076;2022-07-23T06:31:41;5.40;;;5.00;;
15228;SDS011;7717;47.792;12.076;2022-07-23T06:34:06;5.03;;;4.63;;
15228;SDS011;7717;47.792;12.076;2022-07-23T06:36:31;5.03;;;4.63;;
15228;SDS011;7717;47.792;12.076;2022-07-23T06:38:56;6.43;;;5.47;;
15228;SDS011;7717;47.792;12.076;2022-07-23T06:41:22;5.37;;;4.87;;
15228;SDS011;7717;47.792;12.076;2022-07-23T06:43:50;5.23;;;4.73;;
15228;SDS011;7717;47.792;12.076;2022-07-23T06:46:15;5.10;;;4.60;;
15228;SDS011;7717;47.792;12.076;2022-07-23T06:48:40;5.23;;;4.77;;
15228;SDS011;7717;47.792;12.076;2022-07-23T06:51:06;5.37;;;4.63;;
15228;SDS011;7717;47.792;12.076;2022-07-23T06:53:31;4.67;;;4.27;;
15228;SDS011;7717;47.792;12.076;2022-07-23T06:55:56;5.23;;;4.80;;
15228;SDS011;7717;47.792;12.076;2022-07-23T06:58:21;4.23;;;3.93;;
15228;SDS011;7717;47.792;12.076;2022-07-23T07:00:46;5.40;;;4.90;;
15228;SDS011;7717;47.792;12.076;2022-07-23T07:03:12;5.90;;;5.03;;
15228;SDS011;7717;47.792;12.076;2022-07-23T07:05:37;4.83;;;4.50;;
15228;SDS011;7717;47.792;12.076;2022-07-23T07:08:04;5.30;;;4.90;;
15228;SDS011;7717;47.792;12.076;2022-07-23T07:10:29;5.17;;;4.70;;
15228;SDS011;7717;47.792;12.076;2022-07-23T07:12:54;5.23;;;4.77;;
15228;SDS011;7717;47.792;12.076;2022-07-23T07:15:20;6.63;;;5.37;;
15228;SDS011;7717;47.792;12.076;2022-07-23T07:17:45;5.30;;;4.90;;
15228;SDS011;7717;47.792;12.076;2022-07-23T07:20:10;5.20;;;4.80;;
15228;SDS011;7717;47.792;12.076;2022-07-23T07:22:36;5.47;;;5.07;;
15228;SDS011;7717;47.792;12.076;2022-07-23T07:25:01;6.47;;;5.97;;
15228;SDS011;7717;47.792;12.076;2022-07-23T07:27:26;5.90;;;5.40;;
15228;SDS011;7717;47.792;12.076;2022-07-23T07:29:52;5.83;;;5.33;;
15228;SDS011;7717;47.792;12.076;2022-07-23T07:32:17;7.93;;;5.33;;
15228;SDS011;7717;47.792;12.076;2022-07-23T07:34:42;6.03;;;5.53;;
15228;SDS011;7717;47.792;12.076;2022-07-23T07:37:07;5.87;;;5.43;;
15228;SDS011;7717;47.792;12.076;2022-07-23T07:39:33;5.93;;;5.43;;
15228;SDS011;7717;47.792;12.076;2022-07-23T07:41:58;5.70;;;5.20;;
15228;SDS011;7717;47.792;12.076;2022-07-23T07:44:23;5.67;;;5.27;;
15228;SDS011;7717;47.792;12.076;2022-07-23T07:46:49;6.07;;;5.57;;
15228;SDS011;7717;47.792;12.076;2022-07-23T07:49:14;6.37;;;5.87;;
15228;SDS011;7717;47.792;12.076;2022-07-23T07:51:41;6.13;;;5.63;;
15228;SDS011;7717;47.792;12.076;2022-07-23T07:54:06;6.10;;;5.50;;
15228;SDS011;7717;47.792;12.076;2022-07-23T07:56:32;6.30;;;5.80;;
15228;SDS011;7717;47.792;12.076;2022-07-23T07:58:57;4.93;;;4.53;;
15228;SDS011;7717;47.792;12.076;2022-07-23T08:01:23;5.00;;;4.60;;
15228;SDS011;7717;47.792;12.076;2022-07-23T08:03:48;4.47;;;4.07;;
15228;SDS011;7717;47.792;12.076;2022-07-23T08:06:14;5.00;;;4.43;;
15228;SDS011;7717;47.792;12.076;2022-07-23T08:08:39;4.23;;;3.93;;
15228;SDS011;7717;47.792;12.076;2022-07-23T08:11:04;4.43;;;4.13;;
15228;SDS011;7717;47.792;12.076;2022-07-23T08:13:30;5.83;;;4.27;;
15228;SDS011;7717;47.792;12.076;2022-07-23T08:15:55;4.73;;;4.30;;
15228;SDS011;7717;47.792;12.076;2022-07-23T08:18:20;4.30;;;3.90;;
15228;SDS011;7717;47.792;12.076;2022-07-23T08:20:45;4.30;;;4.00;;
15228;SDS011;7717;47.792;12.076;2022-07-23T08:23:11;4.17;;;3.87;;
15228;SDS011;7717;47.792;12.076;2022-07-23T08:25:40;4.90;;;4.50;;
15228;SDS011;7717;47.792;12.076;2022-07-23T08:28:06;4.00;;;3.70;;
15228;SDS011;7717;47.792;12.076;2022-07-23T08:30:32;5.17;;;3.37;;
15228;SDS011;7717;47.792;12.076;2022-07-23T08:33:02;4.33;;;4.00;;
15228;SDS011;7717;47.792;12.076;2022-07-23T08:35:28;4.03;;;3.73;;
15228;SDS011;7717;47.792;12.076;2022-07-23T08:37:54;4.13;;;3.83;;
15228;SDS011;7717;47.792;12.076;2022-07-23T08:40:20;4.00;;;3.70;;
15228;SDS011;7717;47.792;12.076;2022-07-23T08:42:47;4.40;;;4.00;;
15228;SDS011;7717;47.792;12.076;2022-07-23T08:45:12;4.33;;;3.77;;
15228;SDS011;7717;47.792;12.076;2022-07-23T08:47:37;4.50;;;4.10;;
15228;SDS011;7717;47.792;12.076;2022-07-23T08:50:03;4.77;;;4.13;;
15228;SDS011;7717;47.792;12.076;2022-07-23T08:52:30;5.00;;;3.83;;
15228;SDS011;7717;47.792;12.076;2022-07-23T08:54:55;3.70;;;3.47;;
15228;SDS011;7717;47.792;12.076;2022-07-23T08:57:21;4.40;;;3.80;;
15228;SDS011;7717;47.792;12.076;2022-07-23T08:59:46;5.37;;;3.97;;
15228;SDS011;7717;47.792;12.076;2022-07-23T09:02:12;5.77;;;3.87;;
15228;SDS011;7717;47.792;12.076;2022-07-23T09:04:37;4.00;;;3.70;;
15228;SDS011;7717;47.792;12.076;2022-07-23T09:07:02;3.97;;;3.63;;
15228;SDS011;7717;47.792;12.076;2022-07-23T09:09:28;4.47;;;3.60;;
15228;SDS011;7717;47.792;12.076;2022-07-23T09:12:08;4.40;;;4.00;;
15228;SDS011;7717;47.792;12.076;2022-07-23T09:14:41;4.10;;;3.70;;
15228;SDS011;7717;47.792;12.076;2022-07-23T09:19:35;4.05;;;3.75;;
15228;SDS011;7717;47.792;12.076;2022-07-23T09:22:15;3.97;;;3.67;;
15228;SDS011;7717;47.792;12.076;2022-07-23T09:25:01;9.45;;;3.90;;
15228;SDS011;7717;47.792;12.076;2022-07-23T09:27:26;3.90;;;3.60;;
15228;SDS011;7717;47.792;12.076;2022-07-23T09:30:09;4.15;;;3.72;;
15228;SDS011;7717;47.792;12.076;2022-07-23T09:32:35;3.53;;;3.33;;
15228;SDS011;7717;47.792;12.076;2022-07-23T09:35:00;4.00;;;3.70;;
15228;SDS011;7717;47.792;12.076;2022-07-23T09:37:25;4.45;;;4.05;;
15228;SDS011;7717;47.792;12.076;2022-07-23T09:39:50;3.25;;;2.95;;
15228;SDS011;7717;47.792;12.076;2022-07-23T09:42:20;4.30;;;3.90;;
15228;SDS011;7717;47.792;12.076;2022-07-23T09:44:46;3.95;;;3.65;;
15228;SDS011;7717;47.792;12.076;2022-07-23T09:47:12;3.85;;;3.55;;
15228;SDS011;7717;47.792;12.076;2022-07-23T09:49:37;5.50;;;4.15;;
15228;SDS011;7717;47.792;12.076;2022-07-23T09:52:03;4.10;;;3.70;;
15228;SDS011;7717;47.792;12.076;2022-07-23T09:54:35;3.97;;;3.67;;
15228;SDS011;7717;47.792;12.076;2022-07-23T09:57:02;3.17;;;2.90;;
15228;SDS011;7717;47.792;12.076;2022-07-23T09:59:30;4.18;;;3.83;;
15228;SDS011;7717;47.792;12.076;2022-07-23T10:01:57;3.92;;;3.60;;
15228;SDS011;7717;47.792;12.076;2022-07-23T10:04:24;4.00;;;3.60;;
15228;SDS011;7717;47.792;12.076;2022-07-23T10:06:51;4.55;;;3.75;;
15228;SDS011;7717;47.792;12.076;2022-07-23T10:09:17;4.07;;;3.70;;
15228;SDS011;7717;47.792;12.076;2022-07-23T10:11:47;4.20;;;3.90;;
15228;SDS011;7717;47.792;12.076;2022-07-23T10:14:13;4.65;;;4.25;;
15228;SDS011;7717;47.792;12.076;2022-07-23T10:16:38;4.03;;;3.72;;
15228;SDS011;7717;47.792;12.076;2022-07-23T10:19:04;4.47;;;3.83;;
15228;SDS011;7717;47.792;12.076;2022-07-23T10:21:42;3.90;;;3.60;;
15228;SDS011;7717;47.792;12.076;2022-07-23T10:24:28;4.20;;;3.90;;
15228;SDS011;7717;47.792;12.076;2022-07-23T10:34:58;4.10;;;3.65;;
15228;SDS011;7717;47.792;12.076;2022-07-23T10:37:32;6.03;;;4.45;;
15228;SDS011;7717;47.792;12.076;2022-07-23T10:40:17;4.43;;;4.10;;
15228;SDS011;7717;47.792;12.076;2022-07-23T10:42:43;4.35;;;3.60;;
15228;SDS011;7717;47.792;12.076;2022-07-23T10:47:49;3.83;;;3.53;;
15228;SDS011;7717;47.792;12.076;2022-07-23T10:50:29;4.55;;;4.15;;
15228;SDS011;7717;47.792;12.076;2022-07-23T10:57:56;3.88;;;3.40;;
15228;SDS011;7717;47.792;12.076;2022-07-23T11:00:22;4.45;;;4.05;;
15228;SDS011;7717;47.792;12.076;2022-07-23T11:02:49;4.13;;;3.53;;
15228;SDS011;7717;47.792;12.076;2022-07-23T11:05:16;3.70;;;3.50;;
15228;SDS011;7717;47.792;12.076;2022-07-23T11:11:07;4.15;;;3.83;;
15228;SDS011;7717;47.792;12.076;2022-07-23T11:16:41;4.22;;;3.88;;
15228;SDS011;7717;47.792;12.076;2022-07-23T11:34:34;4.40;;;3.92;;
15228;SDS011;7717;47.792;12.076;2022-07-23T11:37:00;4.95;;;4.43;;
15228;SDS011;7717;47.792;12.076;2022-07-23T11:39:27;4.03;;;3.72;;
15228;SDS011;7717;47.792;12.076;2022-07-23T11:41:52;4.75;;;4.35;;
15228;SDS011;7717;47.792;12.076;2022-07-23T11:44:25;4.60;;;4.20;;
15228;SDS011;7717;47.792;12.076;2022-07-23T11:47:09;4.18;;;3.88;;
15228;SDS011;7717;47.792;12.076;2022-07-23T11:49:35;4.15;;;3.75;;
15228;SDS011;7717;47.792;12.076;2022-07-23T11:52:08;4.32;;;3.92;;
15228;SDS011;7717;47.792;12.076;2022-07-23T11:54:34;6.18;;;3.47;;
15228;SDS011;7717;47.792;12.076;2022-07-23T11:57:00;3.80;;;3.60;;
15228;SDS011;7717;47.792;12.076;2022-07-23T11:59:29;3.63;;;3.42;;
15228;SDS011;7717;47.792;12.076;2022-07-23T12:01:59;3.90;;;3.60;;
15228;SDS011;7717;47.792;12.076;2022-07-23T12:04:36;3.80;;;3.50;;
15228;SDS011;7717;47.792;12.076;2022-07-23T12:07:02;4.07;;;3.78;;
15228;SDS011;7717;47.792;12.076;2022-07-23T12:09:28;3.97;;;3.72;;
15228;SDS011;7717;47.792;12.076;2022-07-23T12:11:56;3.88;;;3.58;;
15228;SDS011;7717;47.792;12.076;2022-07-23T12:14:22;4.80;;;3.88;;
15228;SDS011;7717;47.792;12.076;2022-07-23T12:16:47;3.97;;;3.67;;
15228;SDS011;7717;47.792;12.076;2022-07-23T12:19:32;4.40;;;3.97;;
15228;SDS011;7717;47.792;12.076;2022-07-23T12:21:57;4.20;;;3.78;;
15228;SDS011;7717;47.792;12.076;2022-07-23T12:24:23;4.80;;;4.40;;
15228;SDS011;7717;47.792;12.076;2022-07-23T12:27:07;5.00;;;4.60;;
15228;SDS011;7717;47.792;12.076;2022-07-23T12:29:35;4.95;;;4.40;;
15228;SDS011;7717;47.792;12.076;2022-07-23T12:32:01;4.10;;;3.80;;
15228;SDS011;7717;47.792;12.076;2022-07-23T12:34:26;4.28;;;3.90;;
15228;SDS011;7717;47.792;12.076;2022-07-23T12:36:51;4.50;;;4.13;;
15228;SDS011;7717;47.792;12.076;2022-07-23T12:39:32;4.53;;;4.22;;
15228;SDS011;7717;47.792;12.076;2022-07-23T12:41:57;5.45;;;4.97;;
15228;SDS011;7717;47.792;12.076;2022-07-23T12:44:22;5.38;;;4.90;;
15228;SDS011;7717;47.792;12.076;2022-07-23T12:46:54;5.47;;;4.97;;
15228;SDS011;7717;47.792;12.076;2022-07-23T12:49:25;5.40;;;4.95;;
15228;SDS011;7717;47.792;12.076;2022-07-23T12:51:51;5.85;;;4.90;;
15228;SDS011;7717;47.792;12.076;2022-07-23T12:54:16;4.72;;;4.32;;
15228;SDS011;7717;47.792;12.076;2022-07-23T12:56:44;5.15;;;4.75;;
15228;SDS011;7717;47.792;12.076;2022-07-23T12:59:10;5.03;;;4.63;;
15228;SDS011;7717;47.792;12.076;2022-07-23T13:01:36;5.15;;;4.75;;
15228;SDS011;7717;47.792;12.076;2022-07-23T13:04:06;5.63;;;5.10;;
15228;SDS011;7717;47.792;12.076;2022-07-23T13:06:33;5.97;;;4.72;;
15228;SDS011;7717;47.792;12.076;2022-07-23T13:08:59;5.60;;;5.20;;
15228;SDS011;7717;47.792;12.076;2022-07-23T13:11:24;5.03;;;4.63;;
15228;SDS011;7717;47.792;12.076;2022-07-23T13:13:50;5.65;;;5.03;;
15228;SDS011;7717;47.792;12.076;2022-07-23T13:16:15;5.97;;;5.47;;
15228;SDS011;7717;47.792;12.076;2022-07-23T13:18:40;5.15;;;4.75;;
15228;SDS011;7717;47.792;12.076;2022-07-23T13:21:06;5.15;;;4.68;;
15228;SDS011;7717;47.792;12.076;2022-07-23T13:23:31;4.88;;;4.40;;
15228;SDS011;7717;47.792;12.076;2022-07-23T13:25:56;5.10;;;4.70;;
15228;SDS011;7717;47.792;12.076;2022-07-23T13:28:22;9.82;;;5.05;;
15228;SDS011;7717;47.792;12.076;2022-07-23T13:30:48;5.03;;;4.63;;
15228;SDS011;7717;47.792;12.076;2022-07-23T13:33:15;8.55;;;4.70;;
15228;SDS011;7717;47.792;12.076;2022-07-23T13:35:40;4.90;;;4.60;;
15228;SDS011;7717;47.792;12.076;2022-07-23T13:38:06;5.13;;;4.72;;
15228;SDS011;7717;47.792;12.076;2022-07-23T13:40:37;5.30;;;4.90;;
15228;SDS011;7717;47.792;12.076;2022-07-23T13:43:04;5.65;;;5.07;;
15228;SDS011;7717;47.792;12.076;2022-07-23T13:45:29;5.63;;;4.60;;
15228;SDS011;7717;47.792;12.076;2022-07-23T13:47:54;4.80;;;4.40;;
15228;SDS011;7717;47.792;12.076;2022-07-23T13:50:19;5.22;;;4.82;;
15228;SDS011;7717;47.792;12.076;2022-07-23T13:52:45;5.80;;;5.35;;
15228;SDS011;7717;47.792;12.076;2022-07-23T13:55:10;5.32;;;4.90;;
15228;SDS011;7717;47.792;12.076;2022-07-23T13:57:35;5.65;;;5.15;;
15228;SDS011;7717;47.792;12.076;2022-07-23T14:00:01;5.15;;;4.75;;
15228;SDS011;7717;47.792;12.076;2022-07-23T14:02:27;4.80;;;4.40;;
15228;SDS011;7717;47.792;12.076;2022-07-23T14:04:52;4.60;;;4.20;;
15228;SDS011;7717;47.792;12.076;2022-07-23T14:07:18;4.00;;;3.70;;
15228;SDS011;7717;47.792;12.076;2022-07-23T14:09:43;3.60;;;3.40;;
15228;SDS011;7717;47.792;12.076;2022-07-23T14:12:09;5.25;;;4.45;;
15228;SDS011;7717;47.792;12.076;2022-07-23T14:14:34;4.60;;;4.20;;
15228;SDS011;7717;47.792;12.076;2022-07-23T14:17:00;4.10;;;3.80;;
15228;SDS011;7717;47.792;12.076;2022-07-23T14:19:25;4.20;;;3.90;;
15228;SDS011;7717;47.792;12.076;2022-07-23T14:21:50;5.68;;;4.70;;
15228;SDS011;7717;47.792;12.076;2022-07-23T14:24:16;4.45;;;4.05;;
15228;SDS011;7717;47.792;12.076;2022-07-23T14:26:41;5.05;;;4.65;;
15228;SDS011;7717;47.792;12.076;2022-07-23T14:29:07;5.13;;;4.63;;
15228;SDS011;7717;47.792;12.076;2022-07-23T14:31:32;4.75;;;4.35;;
15228;SDS011;7717;47.792;12.076;2022-07-23T14:33:57;5.85;;;5.07;;
15228;SDS011;7717;47.792;12.076;2022-07-23T14:36:22;5.32;;;4.93;;
15228;SDS011;7717;47.792;12.076;2022-07-23T14:38:48;4.47;;;4.18;;
15228;SDS011;7717;47.792;12.076;2022-07-23T14:41:13;5.47;;;4.72;;
15228;SDS011;7717;47.792;12.076;2022-07-23T14:43:38;5.07;;;4.70;;
15228;SDS011;7717;47.792;12.076;2022-07-23T14:46:03;4.80;;;4.40;;
15228;SDS011;7717;47.792;12.076;2022-07-23T14:48:29;5.25;;;4.78;;
15228;SDS011;7717;47.792;12.076;2022-07-23T14:50:54;5.20;;;4.80;;
15228;SDS011;7717;47.792;12.076;2022-07-23T14:53:19;5.15;;;4.68;;
15228;SDS011;7717;47.792;12.076;2022-07-23T14:55:44;5.25;;;4.85;;
15228;SDS011;7717;47.792;12.076;2022-07-23T14:58:10;4.60;;;4.20;;
15228;SDS011;7717;47.792;12.076;2022-07-23T15:00:35;4.75;;;4.35;;
15228;SDS011;7717;47.792;12.076;2022-07-23T15:03:00;4.68;;;4.28;;
15228;SDS011;7717;47.792;12.076;2022-07-23T15:05:26;4.78;;;4.38;;
15228;SDS011;7717;47.792;12.076;2022-07-23T15:07:51;4.70;;;4.35;;
15228;SDS011;7717;47.792;12.076;2022-07-23T15:10:17;4.22;;;3.92;;
15228;SDS011;7717;47.792;12.076;2022-07-23T15:12:42;4.80;;;4.40;;
15228;SDS011;7717;47.792;12.076;2022-07-23T15:15:07;4.57;;;3.85;;
15228;SDS011;7717;47.792;12.076;2022-07-23T15:17:33;4.75;;;4.35;;
15228;SDS011;7717;47.792;12.076;2022-07-23T15:19:58;5.13;;;4.68;;
15228;SDS011;7717;47.792;12.076;2022-07-23T15:22:23;6.00;;;4.60;;
15228;SDS011;7717;47.792;12.076;2022-07-23T15:24:49;4.82;;;4.43;;